createdAt,value
2018-08-23T00:01:33.169Z,99577.00
2018-08-23T00:04:07.762Z,99563.00
2018-08-23T00:06:39.776Z,99563.00
2018-08-23T00:09:09.569Z,99555.00
2018-08-23T00:11:41.369Z,99555.00
2018-08-23T00:14:10.946Z,99551.00
2018-08-23T00:16:42.749Z,99553.00
2018-08-23T00:19:12.611Z,99546.00
2018-08-23T00:21:43.756Z,99555.00
2018-08-23T00:24:16.651Z,99554.00
2018-08-23T00:26:49.398Z,99557.00
2018-08-23T00:29:36.281Z,99551.00
2018-08-23T00:32:06.722Z,99547.00
2018-08-23T00:34:38.178Z,99543.00
2018-08-23T00:37:08.189Z,99540.00
2018-08-23T00:39:37.510Z,99537.00
2018-08-23T00:42:08.406Z,99548.00
2018-08-23T00:44:58.438Z,99536.00
2018-08-23T00:47:32.634Z,99534.00
2018-08-23T00:50:02.108Z,99536.00
2018-08-23T00:52:45.006Z,99541.00
2018-08-23T00:55:25.308Z,99535.00
2018-08-23T00:57:54.760Z,99534.00
2018-08-23T01:00:25.575Z,99530.00
2018-08-23T01:03:02.384Z,99530.00
2018-08-23T01:05:36.965Z,99529.00
2018-08-23T01:08:07.735Z,99523.00
2018-08-23T01:10:39.867Z,99525.00
2018-08-23T01:13:09.274Z,99528.00
2018-08-23T01:15:38.780Z,99530.00
2018-08-23T01:18:15.158Z,99519.00
2018-08-23T01:20:45.647Z,99519.00
2018-08-23T01:23:15.085Z,99513.00
2018-08-23T01:25:45.632Z,99515.00
2018-08-23T01:28:15.144Z,99513.00
2018-08-23T01:30:45.358Z,99513.00
2018-08-23T01:33:15.905Z,99505.00
2018-08-23T01:35:46.492Z,99498.00
2018-08-23T01:38:16.508Z,99506.00
2018-08-23T01:40:46.255Z,99502.00
2018-08-23T01:43:15.764Z,99498.00
2018-08-23T01:45:45.211Z,99499.00
2018-08-23T01:48:15.110Z,99488.00
2018-08-23T01:50:44.621Z,99490.00
2018-08-23T01:53:14.078Z,99489.00
2018-08-23T01:55:43.548Z,99493.00
2018-08-23T01:58:14.356Z,99488.00
2018-08-23T02:00:43.894Z,99494.00
2018-08-23T02:03:13.208Z,99488.00
2018-08-23T02:05:43.407Z,99493.00
2018-08-23T02:08:12.741Z,99490.00
2018-08-23T02:10:42.049Z,99478.00
2018-08-23T02:13:16.387Z,99483.00
2018-08-23T02:15:50.813Z,99484.00
2018-08-23T02:18:20.336Z,99476.00
2018-08-23T02:20:54.290Z,99476.00
2018-08-23T02:23:23.617Z,99472.00
2018-08-23T02:25:54.006Z,99468.00
2018-08-23T02:28:23.327Z,99465.00
2018-08-23T02:30:56.394Z,99471.00
2018-08-23T02:33:26.562Z,99469.00
2018-08-23T02:36:22.256Z,99475.00
2018-08-23T02:39:04.413Z,99473.00
2018-08-23T02:41:33.901Z,99470.00
2018-08-23T02:44:03.325Z,99472.00
2018-08-23T02:46:33.350Z,99473.00
2018-08-23T02:49:03.832Z,99471.00
2018-08-23T02:51:41.683Z,99460.00
2018-08-23T02:54:12.041Z,99461.00
2018-08-23T02:56:46.078Z,99460.00
2018-08-23T02:59:15.663Z,99454.00
2018-08-23T03:01:46.473Z,99461.00
2018-08-23T03:04:30.124Z,99462.00
2018-08-23T03:07:01.670Z,99463.00
2018-08-23T03:09:35.505Z,99463.00
2018-08-23T03:12:18.337Z,99469.00
2018-08-23T03:14:48.323Z,99467.00
2018-08-23T03:17:25.029Z,99467.00
2018-08-23T03:20:13.124Z,99463.00
2018-08-23T03:22:43.429Z,99469.00
2018-08-23T03:25:15.013Z,99463.00
2018-08-23T03:27:44.394Z,99462.00
2018-08-23T03:30:15.051Z,99462.00
2018-08-23T03:32:44.396Z,99463.00
2018-08-23T03:35:13.899Z,99464.00
2018-08-23T03:37:43.288Z,99460.00
2018-08-23T03:40:13.725Z,99463.00
2018-08-23T03:42:43.213Z,99465.00
2018-08-23T03:45:17.846Z,99468.00
2018-08-23T03:47:53.614Z,99467.00
2018-08-23T03:50:22.942Z,99467.00
2018-08-23T03:52:54.461Z,99460.00
2018-08-23T03:55:26.336Z,99463.00
2018-08-23T03:58:01.768Z,99464.00
2018-08-23T04:00:36.217Z,99466.00
2018-08-23T04:03:11.048Z,99460.00
2018-08-23T04:05:40.436Z,99456.00
2018-08-23T04:08:09.908Z,99455.00
2018-08-23T04:10:39.447Z,99466.00
2018-08-23T04:13:08.757Z,99458.00
2018-08-23T04:15:38.354Z,99459.00
2018-08-23T04:18:13.178Z,99460.00
2018-08-23T04:20:55.888Z,99457.00
2018-08-23T04:23:25.477Z,99460.00
2018-08-23T04:25:54.930Z,99451.00
2018-08-23T04:28:24.468Z,99456.00
2018-08-23T04:30:53.878Z,99460.00
2018-08-23T04:33:23.721Z,99448.00
2018-08-23T04:35:53.249Z,99456.00
2018-08-23T04:38:22.764Z,99452.00
2018-08-23T04:41:03.438Z,99451.00
2018-08-23T04:43:33.521Z,99455.00
2018-08-23T04:46:06.970Z,99453.00
2018-08-23T04:48:36.325Z,99452.00
2018-08-23T04:51:05.919Z,99448.00
2018-08-23T04:53:35.507Z,99454.00
2018-08-23T04:56:04.904Z,99455.00
2018-08-23T04:58:34.400Z,99452.00
2018-08-23T05:01:03.879Z,99451.00
2018-08-23T05:03:33.367Z,99446.00
2018-08-23T05:06:02.794Z,99452.00
2018-08-23T05:08:32.340Z,99447.00
2018-08-23T05:11:01.698Z,99444.00
2018-08-23T05:13:31.045Z,99440.00
2018-08-23T05:16:00.561Z,99440.00
2018-08-23T05:18:30.020Z,99434.00
2018-08-23T05:20:59.409Z,99444.00
2018-08-23T05:23:28.842Z,99435.00
2018-08-23T05:26:00.215Z,99431.00
2018-08-23T05:28:29.662Z,99438.00
2018-08-23T05:30:58.980Z,99433.00
2018-08-23T05:33:28.319Z,99432.00
2018-08-23T05:35:58.004Z,99431.00
2018-08-23T05:38:27.414Z,99429.00
2018-08-23T05:41:02.011Z,99419.00
2018-08-23T05:43:31.372Z,99425.00
2018-08-23T05:46:01.553Z,99417.00
2018-08-23T05:48:31.108Z,99422.00
2018-08-23T05:51:04.803Z,99417.00
2018-08-23T05:53:38.534Z,99421.00
2018-08-23T05:56:08.644Z,99422.00
2018-08-23T05:58:38.233Z,99419.00
2018-08-23T06:01:07.738Z,99416.00
2018-08-23T06:03:38.626Z,99410.00
2018-08-23T06:06:08.465Z,99411.00
2018-08-23T06:08:41.471Z,99414.00
2018-08-23T06:11:11.835Z,99412.00
2018-08-23T06:13:41.290Z,99414.00
2018-08-23T06:16:10.602Z,99413.00
2018-08-23T06:18:39.915Z,99416.00
2018-08-23T06:21:09.257Z,99415.00
2018-08-23T06:24:00.560Z,99416.00
2018-08-23T06:26:39.056Z,99401.00
2018-08-23T06:29:09.537Z,99395.00
2018-08-23T06:31:51.330Z,99398.00
2018-08-23T06:34:20.746Z,99400.00
2018-08-23T06:36:50.076Z,99401.00
2018-08-23T06:39:19.409Z,99401.00
2018-08-23T06:41:48.748Z,99403.00
2018-08-23T06:44:18.153Z,99398.00
2018-08-23T06:46:48.453Z,99398.00
2018-08-23T06:49:17.858Z,99391.00
2018-08-23T06:51:52.939Z,99394.00
2018-08-23T06:54:22.501Z,99395.00
2018-08-23T06:56:51.857Z,99392.00
2018-08-23T06:59:21.192Z,99385.00
2018-08-23T07:01:50.622Z,99383.00
2018-08-23T07:04:20.002Z,99383.00
2018-08-23T07:06:49.387Z,99390.00
2018-08-23T07:09:19.253Z,99380.00
2018-08-23T07:11:48.622Z,99381.00
2018-08-23T07:14:19.012Z,99377.00
2018-08-23T07:16:49.624Z,99380.00
2018-08-23T07:19:30.720Z,99380.00
2018-08-23T07:22:02.264Z,99372.00
2018-08-23T07:24:43.030Z,99375.00
2018-08-23T07:27:16.591Z,99372.00
2018-08-23T07:29:47.995Z,99378.00
2018-08-23T07:32:21.481Z,99369.00
2018-08-23T07:35:01.329Z,99370.00
2018-08-23T07:37:31.733Z,99370.00
2018-08-23T07:40:06.323Z,99371.00
2018-08-23T07:42:36.486Z,99367.00
2018-08-23T07:45:06.603Z,99371.00
2018-08-23T07:47:38.276Z,99374.00
2018-08-23T07:50:08.021Z,99362.00
2018-08-23T07:52:38.174Z,99363.00
2018-08-23T07:55:08.108Z,99365.00
2018-08-23T07:57:38.241Z,99362.00
2018-08-23T08:00:44.121Z,99367.00
2018-08-23T08:03:14.730Z,99368.00
2018-08-23T08:05:45.384Z,99370.00
2018-08-23T08:08:14.853Z,99364.00
2018-08-23T08:10:46.058Z,99368.00
2018-08-23T08:13:15.406Z,99362.00
2018-08-23T08:15:44.729Z,99368.00
2018-08-23T08:18:23.510Z,99369.00
2018-08-23T08:21:03.465Z,99360.00
2018-08-23T08:23:33.518Z,99359.00
2018-08-23T08:26:02.843Z,99361.00
2018-08-23T08:28:32.208Z,99370.00
2018-08-23T08:31:02.448Z,99358.00
2018-08-23T08:33:36.926Z,99360.00
2018-08-23T08:36:07.097Z,99364.00
2018-08-23T08:38:36.892Z,99358.00
2018-08-23T08:41:06.269Z,99363.00
2018-08-23T08:43:35.625Z,99354.00
2018-08-23T08:46:04.978Z,99363.00
2018-08-23T08:48:35.259Z,99355.00
2018-08-23T08:51:47.957Z,99362.00
2018-08-23T08:54:17.314Z,99350.00
2018-08-23T08:56:46.896Z,99349.00
2018-08-23T08:59:16.220Z,99345.00
2018-08-23T09:01:45.580Z,99342.00
2018-08-23T09:04:20.126Z,99343.00
2018-08-23T09:06:49.522Z,99344.00
2018-08-23T09:09:40.123Z,99333.00
2018-08-23T09:12:10.686Z,99339.00
2018-08-23T09:14:41.033Z,99337.00
2018-08-23T09:17:32.600Z,99326.00
2018-08-23T09:20:05.261Z,99323.00
2018-08-23T09:22:38.759Z,99322.00
2018-08-23T09:25:17.370Z,99322.00
2018-08-23T09:27:48.429Z,99319.00
2018-08-23T09:30:23.973Z,99317.00
2018-08-23T09:32:53.373Z,99321.00
2018-08-23T09:35:34.485Z,99317.00
2018-08-23T09:38:15.047Z,99312.00
2018-08-23T09:40:44.408Z,99304.00
2018-08-23T09:43:13.777Z,99300.00
2018-08-23T09:45:43.142Z,99300.00
2018-08-23T09:48:12.544Z,99284.00
2018-08-23T09:50:41.889Z,99300.00
2018-08-23T09:53:29.808Z,99289.00
2018-08-23T09:55:59.200Z,99288.00
2018-08-23T09:58:33.728Z,99284.00
2018-08-23T10:01:08.492Z,99288.00
2018-08-23T10:03:43.167Z,99285.00
2018-08-23T10:06:17.868Z,99277.00
2018-08-23T10:10:57.401Z,99279.00
2018-08-23T10:13:32.097Z,99277.00
2018-08-23T10:16:06.588Z,99274.00
2018-08-23T10:18:41.159Z,99263.00
2018-08-23T10:21:10.545Z,99265.00
2018-08-23T10:23:39.854Z,99259.00
2018-08-23T10:26:29.599Z,99257.00
2018-08-23T10:28:58.925Z,99260.00
2018-08-23T10:31:28.308Z,99252.00
2018-08-23T10:33:57.685Z,99255.00
2018-08-23T10:36:27.068Z,99252.00
2018-08-23T10:38:56.433Z,99253.00
2018-08-23T10:41:25.774Z,99250.00
2018-08-23T10:43:55.130Z,99246.00
2018-08-23T10:46:24.479Z,99242.00
2018-08-23T10:48:53.783Z,99244.00
2018-08-23T10:51:23.151Z,99233.00
2018-08-23T10:53:52.543Z,99235.00
2018-08-23T10:56:26.029Z,99232.00
2018-08-23T10:58:55.972Z,99230.00
2018-08-23T11:01:26.790Z,99224.00
2018-08-23T11:04:00.283Z,99224.00
2018-08-23T11:06:29.778Z,99227.00
2018-08-23T11:09:04.412Z,99218.00
2018-08-23T11:11:36.025Z,99216.00
2018-08-23T11:14:10.715Z,99210.00
2018-08-23T11:16:45.471Z,99210.00
2018-08-23T11:19:20.061Z,99211.00
2018-08-23T11:21:49.500Z,99206.00
2018-08-23T11:24:18.955Z,99203.00
2018-08-23T11:26:48.465Z,99204.00
2018-08-23T11:29:18.040Z,99201.00
2018-08-23T11:31:47.396Z,99198.00
2018-08-23T11:34:16.705Z,99197.00
2018-08-23T11:36:46.129Z,99196.00
2018-08-23T11:39:15.486Z,99198.00
2018-08-23T11:41:45.029Z,99187.00
2018-08-23T11:44:14.368Z,99185.00
2018-08-23T11:46:43.735Z,99180.00
2018-08-23T11:49:13.184Z,99190.00
2018-08-23T11:51:42.740Z,99187.00
2018-08-23T11:54:12.151Z,99179.00
2018-08-23T11:56:41.539Z,99184.00
2018-08-23T11:59:10.973Z,99171.00
2018-08-23T12:01:40.455Z,99177.00
2018-08-23T12:04:10.005Z,99164.00
2018-08-23T12:06:40.146Z,99168.00
2018-08-23T12:09:10.450Z,99160.00
2018-08-23T12:11:39.899Z,99155.00
2018-08-23T12:14:09.400Z,99157.00
2018-08-23T12:16:39.722Z,99158.00
2018-08-23T12:19:09.205Z,99153.00
2018-08-23T12:21:38.638Z,99147.00
2018-08-23T12:24:08.017Z,99146.00
2018-08-23T12:26:37.475Z,99143.00
2018-08-23T12:29:09.173Z,99132.00
2018-08-23T12:31:38.904Z,99137.00
2018-08-23T12:34:09.437Z,99139.00
2018-08-23T12:36:44.153Z,99131.00
2018-08-23T12:39:18.685Z,99129.00
2018-08-23T12:41:53.536Z,99122.00
2018-08-23T12:44:23.062Z,99122.00
2018-08-23T12:46:56.539Z,99123.00
2018-08-23T12:49:26.107Z,99120.00
2018-08-23T12:51:55.541Z,99116.00
2018-08-23T12:54:25.076Z,99112.00
2018-08-23T12:56:54.498Z,99109.00
2018-08-23T12:59:24.069Z,99103.00
2018-08-23T13:01:53.616Z,99099.00
2018-08-23T13:04:23.142Z,99096.00
2018-08-23T13:06:52.515Z,99086.00
2018-08-23T13:09:22.013Z,99085.00
2018-08-23T13:11:51.534Z,99087.00
2018-08-23T13:14:21.244Z,99081.00
2018-08-23T13:16:50.645Z,99082.00
2018-08-23T13:19:20.164Z,99075.00
2018-08-23T13:22:05.959Z,99069.00
2018-08-23T13:24:39.445Z,99066.00
2018-08-23T13:27:08.797Z,99071.00
2018-08-23T13:29:38.131Z,99066.00
2018-08-23T13:32:07.601Z,99062.00
2018-08-23T13:34:36.943Z,99063.00
2018-08-23T13:37:06.390Z,99056.00
2018-08-23T13:39:35.755Z,99053.00
2018-08-23T13:42:05.137Z,99039.00
2018-08-23T13:44:34.521Z,99039.00
2018-08-23T13:47:04.056Z,99032.00
2018-08-23T13:49:33.416Z,99040.00
2018-08-23T13:52:02.776Z,99033.00
2018-08-23T13:54:32.166Z,99021.00
2018-08-23T13:57:01.515Z,99020.00
2018-08-23T13:59:30.856Z,99013.00
2018-08-23T14:02:00.249Z,99017.00
2018-08-23T14:04:29.640Z,99029.00
2018-08-23T14:06:58.993Z,99010.00
2018-08-23T14:09:28.404Z,99016.00
2018-08-23T14:11:57.873Z,99018.00
2018-08-23T14:14:27.784Z,99010.00
2018-08-23T14:16:57.138Z,99013.00
2018-08-23T14:19:26.529Z,99010.00
2018-08-23T14:21:56.003Z,99006.00
2018-08-23T14:24:25.296Z,99000.00
2018-08-23T14:26:54.665Z,99003.00
2018-08-23T14:29:24.055Z,99000.00
2018-08-23T14:31:53.415Z,99012.00
2018-08-23T14:34:22.779Z,99024.00
2018-08-23T14:36:52.109Z,99018.00
2018-08-23T14:39:21.490Z,99019.00
2018-08-23T14:41:50.898Z,99035.00
2018-08-23T14:44:20.248Z,99020.00
2018-08-23T14:46:54.748Z,99031.00
2018-08-23T14:49:29.345Z,99039.00
2018-08-23T14:51:58.683Z,99021.00
2018-08-23T14:54:33.248Z,99022.00
2018-08-23T14:57:07.925Z,99029.00
2018-08-23T14:59:37.250Z,99032.00
2018-08-23T15:02:06.955Z,99037.00
2018-08-23T15:04:36.759Z,99037.00
2018-08-23T15:07:06.485Z,99043.00
2018-08-23T15:09:36.152Z,99059.00
2018-08-23T15:12:05.577Z,99124.00
2018-08-23T15:14:35.011Z,99128.00
2018-08-23T15:17:04.855Z,99136.00
2018-08-23T15:19:34.190Z,99150.00
2018-08-23T15:22:03.649Z,99159.00
2018-08-23T15:24:33.406Z,99163.00
2018-08-23T15:27:03.102Z,99157.00
2018-08-23T15:29:32.392Z,99156.00
2018-08-23T15:32:01.797Z,99157.00
2018-08-23T15:34:31.201Z,99165.00
2018-08-23T15:37:00.577Z,99163.00
2018-08-23T15:39:29.971Z,99162.00
2018-08-23T15:41:59.334Z,99166.00
2018-08-23T15:44:28.719Z,99162.00
2018-08-23T15:46:58.195Z,99169.00
2018-08-23T15:49:27.754Z,99173.00
2018-08-23T15:51:57.158Z,99166.00
2018-08-23T15:54:26.640Z,99164.00
2018-08-23T15:56:56.150Z,99156.00
2018-08-23T15:59:25.734Z,99153.00
2018-08-23T16:01:55.226Z,99149.00
2018-08-23T16:04:24.714Z,99145.00
2018-08-23T16:06:54.088Z,99162.00
2018-08-23T16:09:23.451Z,99164.00
2018-08-23T16:11:52.882Z,99184.00
2018-08-23T16:14:22.433Z,99190.00
2018-08-23T16:16:57.213Z,99199.00
2018-08-23T16:19:31.787Z,99202.00
2018-08-23T16:22:01.910Z,99205.00
2018-08-23T16:24:31.336Z,99204.00
2018-08-23T16:27:02.621Z,99199.00
2018-08-23T16:29:32.124Z,99195.00
2018-08-23T16:32:01.794Z,99190.00
2018-08-23T16:34:31.156Z,99191.00
2018-08-23T16:37:00.665Z,99195.00
2018-08-23T16:39:30.272Z,99195.00
2018-08-23T16:41:59.863Z,99192.00
2018-08-23T16:44:29.242Z,99183.00
2018-08-23T16:46:58.832Z,99172.00
2018-08-23T16:49:28.304Z,99176.00
2018-08-23T16:51:57.957Z,99168.00
2018-08-23T16:54:27.493Z,99160.00
2018-08-23T16:56:56.837Z,99168.00
2018-08-23T16:59:26.318Z,99163.00
2018-08-23T17:01:55.906Z,99166.00
2018-08-23T17:04:30.525Z,99165.00
2018-08-23T17:06:59.984Z,99157.00
2018-08-23T17:09:29.337Z,99154.00
2018-08-23T17:11:58.792Z,99159.00
2018-08-23T17:14:28.173Z,99153.00
2018-08-23T17:17:03.372Z,99154.00
2018-08-23T17:19:32.774Z,99153.00
2018-08-23T17:22:02.276Z,99154.00
2018-08-23T17:24:31.626Z,99157.00
2018-08-23T17:27:01.032Z,99156.00
2018-08-23T17:29:31.017Z,99153.00
2018-08-23T17:32:01.087Z,99149.00
2018-08-23T17:34:30.529Z,99147.00
2018-08-23T17:37:00.069Z,99147.00
2018-08-23T17:39:29.552Z,99143.00
2018-08-23T17:41:58.934Z,99142.00
2018-08-23T17:44:28.348Z,99145.00
2018-08-23T17:46:57.880Z,99145.00
2018-08-23T17:49:27.384Z,99141.00
2018-08-23T17:51:56.815Z,99133.00
2018-08-23T17:54:26.498Z,99131.00
2018-08-23T17:56:56.127Z,99126.00
2018-08-23T17:59:25.837Z,99123.00
2018-08-23T18:01:56.166Z,99121.00
2018-08-23T18:04:25.695Z,99117.00
2018-08-23T18:06:55.032Z,99118.00
2018-08-23T18:09:24.584Z,99109.00
2018-08-23T18:11:53.968Z,99115.00
2018-08-23T18:14:23.504Z,99120.00
2018-08-23T18:16:58.926Z,99126.00
2018-08-23T18:19:28.866Z,99121.00
2018-08-23T18:21:58.337Z,99126.00
2018-08-23T18:24:27.857Z,99138.00
2018-08-23T18:26:57.384Z,99141.00
2018-08-23T18:29:26.797Z,99135.00
2018-08-23T18:31:56.296Z,99136.00
2018-08-23T18:34:25.682Z,99128.00
2018-08-23T18:36:55.221Z,99119.00
2018-08-23T18:39:25.309Z,99113.00
2018-08-23T18:41:55.785Z,99114.00
2018-08-23T18:44:25.183Z,99118.00
2018-08-23T18:46:54.599Z,99113.00
2018-08-23T18:49:24.095Z,99111.00
2018-08-23T18:51:54.351Z,99112.00
2018-08-23T18:54:23.877Z,99110.00
2018-08-23T18:56:53.370Z,99111.00
2018-08-23T18:59:22.740Z,99106.00
2018-08-23T19:01:52.269Z,99104.00
2018-08-23T19:04:21.694Z,99101.00
2018-08-23T19:06:51.096Z,99096.00
2018-08-23T19:09:20.602Z,99090.00
2018-08-23T19:11:50.929Z,99098.00
2018-08-23T19:14:20.516Z,99097.00
2018-08-23T19:16:55.027Z,99106.00
2018-08-23T19:19:24.547Z,99105.00
2018-08-23T19:21:54.060Z,99113.00
2018-08-23T19:24:23.709Z,99112.00
2018-08-23T19:26:53.161Z,99119.00
2018-08-23T19:29:22.520Z,99114.00
2018-08-23T19:31:51.940Z,99103.00
2018-08-23T19:34:21.288Z,99098.00
2018-08-23T19:36:51.301Z,99095.00
2018-08-23T19:39:20.780Z,99097.00
2018-08-23T19:41:50.237Z,99101.00
2018-08-23T19:44:19.605Z,99095.00
2018-08-23T19:46:54.261Z,99100.00
2018-08-23T19:49:28.811Z,99090.00
2018-08-23T19:51:58.203Z,99103.00
2018-08-23T19:54:28.031Z,99109.00
2018-08-23T19:56:57.475Z,99104.00
2018-08-23T19:59:26.955Z,99100.00
2018-08-23T20:01:56.313Z,99099.00
2018-08-23T20:04:25.658Z,99099.00
2018-08-23T20:06:55.158Z,99095.00
2018-08-23T20:09:24.581Z,99108.00
2018-08-23T20:11:54.035Z,99099.00
2018-08-23T20:14:23.451Z,99096.00
2018-08-23T20:16:52.872Z,99093.00
2018-08-23T20:19:22.335Z,99093.00
2018-08-23T20:21:51.868Z,99088.00
2018-08-23T20:24:21.352Z,99100.00
2018-08-23T20:26:50.698Z,99096.00
2018-08-23T20:29:20.319Z,99096.00
2018-08-23T20:31:49.832Z,99097.00
2018-08-23T20:34:19.348Z,99094.00
2018-08-23T20:36:48.734Z,99097.00
2018-08-23T20:39:18.366Z,99096.00
2018-08-23T20:41:48.391Z,99088.00
2018-08-23T20:44:17.873Z,99090.00
2018-08-23T20:46:47.370Z,99093.00
2018-08-23T20:49:16.878Z,99080.00
2018-08-23T20:51:46.282Z,99087.00
2018-08-23T20:54:16.142Z,99081.00
2018-08-23T20:56:45.584Z,99087.00
2018-08-23T20:59:15.945Z,99090.00
2018-08-23T21:01:45.474Z,99098.00
2018-08-23T21:04:15.019Z,99098.00
2018-08-23T21:06:44.432Z,99110.00
2018-08-23T21:09:14.186Z,99090.00
2018-08-23T21:11:43.510Z,99091.00
2018-08-23T21:14:12.833Z,99083.00
2018-08-23T21:16:42.337Z,99081.00
2018-08-23T21:19:11.732Z,99082.00
2018-08-23T21:21:41.053Z,99073.00
2018-08-23T21:24:10.617Z,99073.00
2018-08-23T21:26:40.137Z,99056.00
2018-08-23T21:29:09.568Z,99057.00
2018-08-23T21:31:38.950Z,99048.00
2018-08-23T21:34:08.469Z,99041.00
2018-08-23T21:36:37.831Z,99050.00
2018-08-23T21:39:09.541Z,99049.00
2018-08-23T21:41:39.037Z,99051.00
2018-08-23T21:44:08.570Z,99041.00
2018-08-23T21:46:37.897Z,99037.00
2018-08-23T21:49:07.504Z,99030.00
2018-08-23T21:51:36.892Z,99038.00
2018-08-23T21:54:06.286Z,99037.00
2018-08-23T21:56:35.909Z,99028.00
2018-08-23T21:59:05.385Z,99036.00
2018-08-23T22:01:34.860Z,99041.00
2018-08-23T22:04:05.461Z,99044.00
2018-08-23T22:06:34.922Z,99034.00
2018-08-23T22:09:06.202Z,99036.00
2018-08-23T22:11:35.871Z,99037.00
2018-08-23T22:14:05.642Z,99035.00
2018-08-23T22:16:35.149Z,99031.00
2018-08-23T22:19:04.601Z,99031.00
2018-08-23T22:21:34.076Z,99040.00
2018-08-23T22:24:03.573Z,99039.00
2018-08-23T22:26:33.120Z,99042.00
2018-08-23T22:29:02.594Z,99037.00
2018-08-23T22:31:32.162Z,99027.00
2018-08-23T22:34:01.668Z,99018.00
2018-08-23T22:36:31.221Z,99023.00
2018-08-23T22:39:00.997Z,99018.00
2018-08-23T22:41:30.464Z,99017.00
2018-08-23T22:43:59.966Z,99019.00
2018-08-23T22:46:29.411Z,99018.00
2018-08-23T22:48:58.897Z,99010.00
2018-08-23T22:51:28.415Z,99013.00
2018-08-23T22:53:57.921Z,99011.00
2018-08-23T22:56:27.421Z,99017.00
2018-08-23T22:58:56.883Z,99001.00
2018-08-23T23:01:26.220Z,99007.00
2018-08-23T23:04:01.011Z,98996.00
2018-08-23T23:06:30.505Z,98997.00
2018-08-23T23:08:59.953Z,98992.00
2018-08-23T23:11:29.433Z,98988.00
2018-08-23T23:13:58.938Z,98988.00
2018-08-23T23:16:29.499Z,98989.00
2018-08-23T23:18:58.980Z,98991.00
2018-08-23T23:21:28.461Z,98985.00
2018-08-23T23:23:57.948Z,98970.00
2018-08-23T23:26:27.391Z,98969.00
2018-08-23T23:28:56.950Z,98964.00
2018-08-23T23:31:26.442Z,98968.00
2018-08-23T23:33:56.075Z,98961.00
2018-08-23T23:36:25.730Z,98968.00
2018-08-23T23:38:55.234Z,98968.00
2018-08-23T23:41:24.809Z,98964.00
2018-08-23T23:43:54.430Z,98968.00
2018-08-23T23:46:23.884Z,98969.00
2018-08-23T23:48:53.324Z,98968.00
2018-08-23T23:51:22.624Z,98969.00
2018-08-23T23:53:51.969Z,98959.00
2018-08-23T23:56:21.463Z,98966.00
2018-08-23T23:58:50.844Z,98964.00
